sensor_id;sensor_type;location;lat;lon;timestamp;P1;durP1;ratioP1;P2;durP2;ratioP2
61093;SDS011;46976;52.942;6.810;2022-08-01T00:00:33;14.32;;;9.20;;
61093;SDS011;46976;52.942;6.810;2022-08-01T00:02:59;15.77;;;9.68;;
61093;SDS011;46976;52.942;6.810;2022-08-01T00:05:25;15.27;;;9.05;;
61093;SDS011;46976;52.942;6.810;2022-08-01T00:07:51;15.68;;;8.82;;
61093;SDS011;46976;52.942;6.810;2022-08-01T00:10:17;13.73;;;8.65;;
61093;SDS011;46976;52.942;6.810;2022-08-01T00:12:44;13.55;;;8.80;;
61093;SDS011;46976;52.942;6.810;2022-08-01T00:15:11;15.38;;;8.85;;
61093;SDS011;46976;52.942;6.810;2022-08-01T00:17:38;13.93;;;8.38;;
61093;SDS011;46976;52.942;6.810;2022-08-01T00:20:05;14.27;;;8.50;;
61093;SDS011;46976;52.942;6.810;2022-08-01T00:22:31;14.60;;;8.85;;
61093;SDS011;46976;52.942;6.810;2022-08-01T00:24:58;13.98;;;8.77;;
61093;SDS011;46976;52.942;6.810;2022-08-01T00:27:24;12.40;;;8.02;;
61093;SDS011;46976;52.942;6.810;2022-08-01T00:29:50;14.38;;;7.82;;
61093;SDS011;46976;52.942;6.810;2022-08-01T00:32:16;16.08;;;8.65;;
61093;SDS011;46976;52.942;6.810;2022-08-01T00:34:43;17.85;;;8.60;;
61093;SDS011;46976;52.942;6.810;2022-08-01T00:37:09;13.80;;;8.55;;
61093;SDS011;46976;52.942;6.810;2022-08-01T00:39:35;14.73;;;8.75;;
61093;SDS011;46976;52.942;6.810;2022-08-01T00:42:08;18.00;;;9.32;;
61093;SDS011;46976;52.942;6.810;2022-08-01T00:44:35;17.13;;;9.07;;
61093;SDS011;46976;52.942;6.810;2022-08-01T00:47:01;17.83;;;9.50;;
61093;SDS011;46976;52.942;6.810;2022-08-01T00:49:27;18.50;;;9.48;;
61093;SDS011;46976;52.942;6.810;2022-08-01T00:51:54;15.75;;;9.88;;
61093;SDS011;46976;52.942;6.810;2022-08-01T00:54:20;15.00;;;9.48;;
61093;SDS011;46976;52.942;6.810;2022-08-01T00:56:46;17.90;;;10.60;;
61093;SDS011;46976;52.942;6.810;2022-08-01T00:59:12;18.60;;;10.20;;
61093;SDS011;46976;52.942;6.810;2022-08-01T01:01:39;17.45;;;10.38;;
61093;SDS011;46976;52.942;6.810;2022-08-01T01:04:05;17.63;;;10.40;;
61093;SDS011;46976;52.942;6.810;2022-08-01T01:06:47;18.90;;;9.85;;
61093;SDS011;46976;52.942;6.810;2022-08-01T01:09:25;17.27;;;10.40;;
61093;SDS011;46976;52.942;6.810;2022-08-01T01:14:23;15.88;;;10.02;;
61093;SDS011;46976;52.942;6.810;2022-08-01T01:16:51;15.73;;;10.00;;
61093;SDS011;46976;52.942;6.810;2022-08-01T01:19:21;22.07;;;10.70;;
61093;SDS011;46976;52.942;6.810;2022-08-01T01:24:34;15.65;;;9.57;;
61093;SDS011;46976;52.942;6.810;2022-08-01T01:27:06;14.20;;;8.98;;
61093;SDS011;46976;52.942;6.810;2022-08-01T01:29:46;15.70;;;9.55;;
61093;SDS011;46976;52.942;6.810;2022-08-01T01:32:18;17.23;;;9.85;;
61093;SDS011;46976;52.942;6.810;2022-08-01T01:34:45;16.67;;;9.10;;
61093;SDS011;46976;52.942;6.810;2022-08-01T01:37:16;15.35;;;8.35;;
61093;SDS011;46976;52.942;6.810;2022-08-01T01:39:43;14.93;;;8.38;;
61093;SDS011;46976;52.942;6.810;2022-08-01T01:42:10;17.50;;;9.60;;
61093;SDS011;46976;52.942;6.810;2022-08-01T01:44:37;12.85;;;7.47;;
61093;SDS011;46976;52.942;6.810;2022-08-01T01:47:04;14.15;;;7.30;;
61093;SDS011;46976;52.942;6.810;2022-08-01T01:49:30;15.07;;;7.75;;
61093;SDS011;46976;52.942;6.810;2022-08-01T01:51:57;13.15;;;7.53;;
61093;SDS011;46976;52.942;6.810;2022-08-01T01:54:26;12.27;;;6.60;;
61093;SDS011;46976;52.942;6.810;2022-08-01T01:56:55;12.13;;;6.82;;
61093;SDS011;46976;52.942;6.810;2022-08-01T01:59:24;11.90;;;6.90;;
61093;SDS011;46976;52.942;6.810;2022-08-01T02:01:51;12.07;;;7.10;;
61093;SDS011;46976;52.942;6.810;2022-08-01T02:04:17;12.02;;;6.88;;
61093;SDS011;46976;52.942;6.810;2022-08-01T02:06:45;14.02;;;7.53;;
61093;SDS011;46976;52.942;6.810;2022-08-01T02:09:14;12.35;;;6.68;;
61093;SDS011;46976;52.942;6.810;2022-08-01T02:11:42;13.70;;;8.00;;
61093;SDS011;46976;52.942;6.810;2022-08-01T02:14:09;13.48;;;7.07;;
61093;SDS011;46976;52.942;6.810;2022-08-01T02:16:36;12.60;;;7.25;;
61093;SDS011;46976;52.942;6.810;2022-08-01T02:19:03;13.13;;;7.40;;
61093;SDS011;46976;52.942;6.810;2022-08-01T02:21:30;10.73;;;6.85;;
61093;SDS011;46976;52.942;6.810;2022-08-01T02:24:03;11.38;;;7.20;;
61093;SDS011;46976;52.942;6.810;2022-08-01T02:26:33;11.88;;;6.68;;
61093;SDS011;46976;52.942;6.810;2022-08-01T02:29:01;14.30;;;7.10;;
61093;SDS011;46976;52.942;6.810;2022-08-01T02:31:28;12.13;;;7.28;;
61093;SDS011;46976;52.942;6.810;2022-08-01T02:34:03;10.15;;;6.05;;
61093;SDS011;46976;52.942;6.810;2022-08-01T02:36:31;8.73;;;4.80;;
61093;SDS011;46976;52.942;6.810;2022-08-01T02:38:58;10.48;;;4.47;;
61093;SDS011;46976;52.942;6.810;2022-08-01T02:41:25;7.78;;;4.15;;
61093;SDS011;46976;52.942;6.810;2022-08-01T02:43:52;8.30;;;4.05;;
61093;SDS011;46976;52.942;6.810;2022-08-01T02:46:23;9.25;;;4.55;;
61093;SDS011;46976;52.942;6.810;2022-08-01T02:48:50;7.93;;;4.00;;
61093;SDS011;46976;52.942;6.810;2022-08-01T02:51:18;9.73;;;3.80;;
61093;SDS011;46976;52.942;6.810;2022-08-01T02:53:46;7.63;;;3.20;;
61093;SDS011;46976;52.942;6.810;2022-08-01T02:56:12;11.90;;;3.38;;
61093;SDS011;46976;52.942;6.810;2022-08-01T02:58:39;8.90;;;3.58;;
61093;SDS011;46976;52.942;6.810;2022-08-01T03:01:06;7.88;;;3.53;;
61093;SDS011;46976;52.942;6.810;2022-08-01T03:03:33;8.65;;;3.40;;
61093;SDS011;46976;52.942;6.810;2022-08-01T03:06:00;8.27;;;3.10;;
61093;SDS011;46976;52.942;6.810;2022-08-01T03:08:27;7.38;;;3.20;;
61093;SDS011;46976;52.942;6.810;2022-08-01T03:10:54;7.95;;;3.00;;
61093;SDS011;46976;52.942;6.810;2022-08-01T03:13:21;8.30;;;2.97;;
61093;SDS011;46976;52.942;6.810;2022-08-01T03:15:47;8.38;;;3.22;;
61093;SDS011;46976;52.942;6.810;2022-08-01T03:18:13;7.82;;;3.28;;
61093;SDS011;46976;52.942;6.810;2022-08-01T03:20:41;7.78;;;3.53;;
61093;SDS011;46976;52.942;6.810;2022-08-01T03:23:08;7.13;;;3.58;;
61093;SDS011;46976;52.942;6.810;2022-08-01T03:25:38;7.93;;;3.25;;
61093;SDS011;46976;52.942;6.810;2022-08-01T03:30:30;8.50;;;3.67;;
61093;SDS011;46976;52.942;6.810;2022-08-01T03:32:57;7.43;;;3.45;;
61093;SDS011;46976;52.942;6.810;2022-08-01T03:35:23;6.00;;;2.85;;
61093;SDS011;46976;52.942;6.810;2022-08-01T03:37:53;9.50;;;3.20;;
61093;SDS011;46976;52.942;6.810;2022-08-01T03:40:22;10.73;;;3.65;;
61093;SDS011;46976;52.942;6.810;2022-08-01T03:42:50;7.80;;;3.08;;
61093;SDS011;46976;52.942;6.810;2022-08-01T03:45:21;12.60;;;3.10;;
61093;SDS011;46976;52.942;6.810;2022-08-01T03:47:49;8.07;;;2.70;;
61093;SDS011;46976;52.942;6.810;2022-08-01T03:50:18;9.32;;;3.10;;
61093;SDS011;46976;52.942;6.810;2022-08-01T03:52:45;8.43;;;2.60;;
61093;SDS011;46976;52.942;6.810;2022-08-01T03:55:12;8.25;;;2.95;;
61093;SDS011;46976;52.942;6.810;2022-08-01T03:57:41;9.57;;;2.90;;
61093;SDS011;46976;52.942;6.810;2022-08-01T04:00:08;8.93;;;3.20;;
61093;SDS011;46976;52.942;6.810;2022-08-01T04:02:35;8.95;;;3.20;;
61093;SDS011;46976;52.942;6.810;2022-08-01T04:05:02;9.38;;;3.00;;
61093;SDS011;46976;52.942;6.810;2022-08-01T04:07:29;7.22;;;3.15;;
61093;SDS011;46976;52.942;6.810;2022-08-01T04:09:56;10.32;;;3.20;;
61093;SDS011;46976;52.942;6.810;2022-08-01T04:12:22;12.05;;;3.38;;
61093;SDS011;46976;52.942;6.810;2022-08-01T04:14:48;11.05;;;3.70;;
61093;SDS011;46976;52.942;6.810;2022-08-01T04:17:15;9.77;;;3.80;;
61093;SDS011;46976;52.942;6.810;2022-08-01T04:19:41;10.23;;;3.70;;
61093;SDS011;46976;52.942;6.810;2022-08-01T04:22:08;14.45;;;4.20;;
61093;SDS011;46976;52.942;6.810;2022-08-01T04:24:35;14.35;;;3.72;;
61093;SDS011;46976;52.942;6.810;2022-08-01T04:27:02;12.75;;;4.05;;
61093;SDS011;46976;52.942;6.810;2022-08-01T04:29:30;10.35;;;3.90;;
61093;SDS011;46976;52.942;6.810;2022-08-01T04:31:57;10.85;;;3.53;;
61093;SDS011;46976;52.942;6.810;2022-08-01T04:34:25;9.15;;;3.28;;
61093;SDS011;46976;52.942;6.810;2022-08-01T04:36:54;9.63;;;3.55;;
61093;SDS011;46976;52.942;6.810;2022-08-01T04:39:21;8.63;;;3.13;;
61093;SDS011;46976;52.942;6.810;2022-08-01T04:41:49;9.85;;;3.58;;
61093;SDS011;46976;52.942;6.810;2022-08-01T04:44:16;11.75;;;3.70;;
61093;SDS011;46976;52.942;6.810;2022-08-01T04:46:42;9.05;;;3.38;;
61093;SDS011;46976;52.942;6.810;2022-08-01T04:49:10;10.02;;;3.53;;
61093;SDS011;46976;52.942;6.810;2022-08-01T04:51:36;11.40;;;4.43;;
61093;SDS011;46976;52.942;6.810;2022-08-01T04:54:02;11.40;;;3.90;;
61093;SDS011;46976;52.942;6.810;2022-08-01T04:56:29;10.25;;;3.45;;
61093;SDS011;46976;52.942;6.810;2022-08-01T04:58:55;12.57;;;3.95;;
61093;SDS011;46976;52.942;6.810;2022-08-01T05:01:40;13.95;;;4.00;;
61093;SDS011;46976;52.942;6.810;2022-08-01T05:04:06;10.35;;;3.75;;
61093;SDS011;46976;52.942;6.810;2022-08-01T05:06:32;11.02;;;3.53;;
61093;SDS011;46976;52.942;6.810;2022-08-01T05:08:58;10.88;;;4.15;;
61093;SDS011;46976;52.942;6.810;2022-08-01T05:11:24;10.63;;;3.65;;
61093;SDS011;46976;52.942;6.810;2022-08-01T05:13:50;11.98;;;4.07;;
61093;SDS011;46976;52.942;6.810;2022-08-01T05:16:16;10.63;;;4.10;;
61093;SDS011;46976;52.942;6.810;2022-08-01T05:18:42;15.48;;;4.50;;
61093;SDS011;46976;52.942;6.810;2022-08-01T05:21:08;12.70;;;4.15;;
61093;SDS011;46976;52.942;6.810;2022-08-01T05:23:34;14.88;;;4.35;;
61093;SDS011;46976;52.942;6.810;2022-08-01T05:26:00;11.68;;;3.80;;
61093;SDS011;46976;52.942;6.810;2022-08-01T05:28:26;12.73;;;3.40;;
61093;SDS011;46976;52.942;6.810;2022-08-01T05:30:52;15.80;;;3.75;;
61093;SDS011;46976;52.942;6.810;2022-08-01T05:33:19;14.18;;;3.50;;
61093;SDS011;46976;52.942;6.810;2022-08-01T05:35:46;13.63;;;3.90;;
61093;SDS011;46976;52.942;6.810;2022-08-01T05:38:12;13.00;;;3.75;;
61093;SDS011;46976;52.942;6.810;2022-08-01T05:40:38;12.70;;;3.40;;
61093;SDS011;46976;52.942;6.810;2022-08-01T05:43:04;13.07;;;3.58;;
61093;SDS011;46976;52.942;6.810;2022-08-01T05:45:30;12.40;;;3.33;;
61093;SDS011;46976;52.942;6.810;2022-08-01T05:47:56;15.10;;;3.75;;
61093;SDS011;46976;52.942;6.810;2022-08-01T05:50:22;15.55;;;3.97;;
61093;SDS011;46976;52.942;6.810;2022-08-01T05:52:49;12.82;;;3.95;;
61093;SDS011;46976;52.942;6.810;2022-08-01T05:55:15;13.15;;;3.40;;
61093;SDS011;46976;52.942;6.810;2022-08-01T05:57:41;13.40;;;3.35;;
61093;SDS011;46976;52.942;6.810;2022-08-01T06:00:07;12.63;;;3.70;;
61093;SDS011;46976;52.942;6.810;2022-08-01T06:02:34;12.68;;;3.38;;
61093;SDS011;46976;52.942;6.810;2022-08-01T06:05:05;15.32;;;3.22;;
61093;SDS011;46976;52.942;6.810;2022-08-01T06:07:31;13.65;;;3.90;;
61093;SDS011;46976;52.942;6.810;2022-08-01T06:09:57;12.20;;;3.47;;
61093;SDS011;46976;52.942;6.810;2022-08-01T06:12:24;15.75;;;3.42;;
61093;SDS011;46976;52.942;6.810;2022-08-01T06:14:50;15.65;;;4.15;;
61093;SDS011;46976;52.942;6.810;2022-08-01T06:17:16;13.77;;;3.50;;
61093;SDS011;46976;52.942;6.810;2022-08-01T06:19:42;15.23;;;3.72;;
61093;SDS011;46976;52.942;6.810;2022-08-01T06:22:08;14.20;;;3.50;;
61093;SDS011;46976;52.942;6.810;2022-08-01T06:24:34;13.23;;;3.53;;
61093;SDS011;46976;52.942;6.810;2022-08-01T06:27:01;16.35;;;3.90;;
61093;SDS011;46976;52.942;6.810;2022-08-01T06:29:29;12.95;;;3.60;;
61093;SDS011;46976;52.942;6.810;2022-08-01T06:34:22;15.35;;;4.65;;
61093;SDS011;46976;52.942;6.810;2022-08-01T06:36:48;14.73;;;4.05;;
61093;SDS011;46976;52.942;6.810;2022-08-01T06:39:14;17.27;;;3.97;;
61093;SDS011;46976;52.942;6.810;2022-08-01T06:41:40;15.35;;;4.60;;
61093;SDS011;46976;52.942;6.810;2022-08-01T06:44:06;15.20;;;3.83;;
61093;SDS011;46976;52.942;6.810;2022-08-01T06:46:33;15.52;;;3.85;;
61093;SDS011;46976;52.942;6.810;2022-08-01T06:48:59;14.25;;;3.92;;
61093;SDS011;46976;52.942;6.810;2022-08-01T06:51:25;12.93;;;3.80;;
61093;SDS011;46976;52.942;6.810;2022-08-01T06:53:51;14.60;;;3.75;;
61093;SDS011;46976;52.942;6.810;2022-08-01T06:56:18;14.77;;;3.78;;
61093;SDS011;46976;52.942;6.810;2022-08-01T06:58:44;12.07;;;3.45;;
61093;SDS011;46976;52.942;6.810;2022-08-01T07:01:10;11.73;;;3.65;;
61093;SDS011;46976;52.942;6.810;2022-08-01T07:03:37;15.68;;;3.58;;
61093;SDS011;46976;52.942;6.810;2022-08-01T07:06:03;13.45;;;3.40;;
61093;SDS011;46976;52.942;6.810;2022-08-01T07:08:29;15.00;;;4.00;;
61093;SDS011;46976;52.942;6.810;2022-08-01T07:10:55;14.38;;;3.78;;
61093;SDS011;46976;52.942;6.810;2022-08-01T07:13:25;17.67;;;3.92;;
61093;SDS011;46976;52.942;6.810;2022-08-01T07:15:51;15.18;;;3.90;;
61093;SDS011;46976;52.942;6.810;2022-08-01T07:18:17;14.52;;;3.90;;
61093;SDS011;46976;52.942;6.810;2022-08-01T07:20:44;17.23;;;4.13;;
61093;SDS011;46976;52.942;6.810;2022-08-01T07:23:14;14.15;;;3.58;;
61093;SDS011;46976;52.942;6.810;2022-08-01T07:25:41;15.95;;;4.13;;
61093;SDS011;46976;52.942;6.810;2022-08-01T07:28:07;14.13;;;4.28;;
61093;SDS011;46976;52.942;6.810;2022-08-01T07:30:33;13.00;;;3.70;;
61093;SDS011;46976;52.942;6.810;2022-08-01T07:33:00;16.90;;;3.78;;
61093;SDS011;46976;52.942;6.810;2022-08-01T07:35:26;11.88;;;3.33;;
61093;SDS011;46976;52.942;6.810;2022-08-01T07:37:52;14.07;;;3.58;;
61093;SDS011;46976;52.942;6.810;2022-08-01T07:40:18;13.13;;;3.55;;
61093;SDS011;46976;52.942;6.810;2022-08-01T07:42:45;14.77;;;3.65;;
61093;SDS011;46976;52.942;6.810;2022-08-01T07:45:11;13.50;;;3.15;;
61093;SDS011;46976;52.942;6.810;2022-08-01T07:47:37;16.25;;;3.90;;
61093;SDS011;46976;52.942;6.810;2022-08-01T07:50:03;13.57;;;3.83;;
61093;SDS011;46976;52.942;6.810;2022-08-01T07:52:31;17.88;;;3.95;;
61093;SDS011;46976;52.942;6.810;2022-08-01T07:54:57;14.40;;;3.80;;
61093;SDS011;46976;52.942;6.810;2022-08-01T07:57:24;14.18;;;3.28;;
61093;SDS011;46976;52.942;6.810;2022-08-01T07:59:51;17.73;;;3.83;;
61093;SDS011;46976;52.942;6.810;2022-08-01T08:02:17;16.15;;;3.65;;
61093;SDS011;46976;52.942;6.810;2022-08-01T08:04:43;14.73;;;3.75;;
61093;SDS011;46976;52.942;6.810;2022-08-01T08:07:09;14.82;;;3.50;;
61093;SDS011;46976;52.942;6.810;2022-08-01T08:09:35;16.02;;;3.65;;
61093;SDS011;46976;52.942;6.810;2022-08-01T08:12:01;13.50;;;3.63;;
61093;SDS011;46976;52.942;6.810;2022-08-01T08:14:27;13.48;;;3.40;;
61093;SDS011;46976;52.942;6.810;2022-08-01T08:16:54;13.98;;;3.10;;
61093;SDS011;46976;52.942;6.810;2022-08-01T08:19:20;11.98;;;2.80;;
61093;SDS011;46976;52.942;6.810;2022-08-01T08:21:46;11.43;;;3.50;;
61093;SDS011;46976;52.942;6.810;2022-08-01T08:24:12;12.93;;;3.28;;
61093;SDS011;46976;52.942;6.810;2022-08-01T08:26:45;12.13;;;2.90;;
61093;SDS011;46976;52.942;6.810;2022-08-01T08:29:11;13.50;;;3.05;;
61093;SDS011;46976;52.942;6.810;2022-08-01T08:31:37;13.98;;;3.10;;
61093;SDS011;46976;52.942;6.810;2022-08-01T08:34:03;12.77;;;2.95;;
61093;SDS011;46976;52.942;6.810;2022-08-01T08:36:30;12.52;;;2.80;;
61093;SDS011;46976;52.942;6.810;2022-08-01T08:38:56;11.23;;;2.90;;
61093;SDS011;46976;52.942;6.810;2022-08-01T08:41:22;14.23;;;2.95;;
61093;SDS011;46976;52.942;6.810;2022-08-01T08:43:48;12.48;;;2.90;;
61093;SDS011;46976;52.942;6.810;2022-08-01T08:46:14;13.00;;;2.90;;
61093;SDS011;46976;52.942;6.810;2022-08-01T08:48:41;13.35;;;2.92;;
61093;SDS011;46976;52.942;6.810;2022-08-01T08:51:08;12.02;;;3.10;;
61093;SDS011;46976;52.942;6.810;2022-08-01T08:53:35;13.45;;;3.08;;
61093;SDS011;46976;52.942;6.810;2022-08-01T08:56:02;12.35;;;2.70;;
61093;SDS011;46976;52.942;6.810;2022-08-01T08:58:28;12.48;;;2.83;;
61093;SDS011;46976;52.942;6.810;2022-08-01T09:00:59;14.57;;;2.70;;
61093;SDS011;46976;52.942;6.810;2022-08-01T09:03:25;11.57;;;2.80;;
61093;SDS011;46976;52.942;6.810;2022-08-01T09:05:51;12.02;;;2.60;;
61093;SDS011;46976;52.942;6.810;2022-08-01T09:08:18;10.50;;;2.65;;
61093;SDS011;46976;52.942;6.810;2022-08-01T09:10:44;12.10;;;2.72;;
61093;SDS011;46976;52.942;6.810;2022-08-01T09:13:11;13.05;;;2.80;;
61093;SDS011;46976;52.942;6.810;2022-08-01T09:23:38;11.35;;;2.78;;
61093;SDS011;46976;52.942;6.810;2022-08-01T09:26:07;11.27;;;2.33;;
61093;SDS011;46976;52.942;6.810;2022-08-01T09:28:33;13.55;;;2.40;;
61093;SDS011;46976;52.942;6.810;2022-08-01T09:31:08;9.25;;;2.47;;
61093;SDS011;46976;52.942;6.810;2022-08-01T09:33:51;13.70;;;2.72;;
61093;SDS011;46976;52.942;6.810;2022-08-01T09:36:19;10.60;;;2.15;;
61093;SDS011;46976;52.942;6.810;2022-08-01T09:38:45;10.07;;;2.13;;
61093;SDS011;46976;52.942;6.810;2022-08-01T09:41:11;9.05;;;1.90;;
61093;SDS011;46976;52.942;6.810;2022-08-01T09:43:37;9.65;;;2.25;;
61093;SDS011;46976;52.942;6.810;2022-08-01T09:46:04;10.55;;;2.33;;
61093;SDS011;46976;52.942;6.810;2022-08-01T09:48:31;7.60;;;1.90;;
61093;SDS011;46976;52.942;6.810;2022-08-01T09:50:58;10.63;;;2.13;;
61093;SDS011;46976;52.942;6.810;2022-08-01T09:53:24;8.38;;;2.13;;
61093;SDS011;46976;52.942;6.810;2022-08-01T09:55:50;9.40;;;2.20;;
61093;SDS011;46976;52.942;6.810;2022-08-01T09:58:19;9.88;;;2.33;;
61093;SDS011;46976;52.942;6.810;2022-08-01T10:00:57;11.25;;;2.17;;
61093;SDS011;46976;52.942;6.810;2022-08-01T10:03:25;7.70;;;2.00;;
61093;SDS011;46976;52.942;6.810;2022-08-01T10:05:51;7.90;;;1.55;;
61093;SDS011;46976;52.942;6.810;2022-08-01T10:08:22;9.43;;;1.80;;
61093;SDS011;46976;52.942;6.810;2022-08-01T10:11:08;8.15;;;1.65;;
61093;SDS011;46976;52.942;6.810;2022-08-01T10:13:34;9.55;;;1.80;;
61093;SDS011;46976;52.942;6.810;2022-08-01T10:16:01;8.75;;;1.77;;
61093;SDS011;46976;52.942;6.810;2022-08-01T10:18:28;8.15;;;1.70;;
61093;SDS011;46976;52.942;6.810;2022-08-01T10:20:56;10.98;;;1.90;;
61093;SDS011;46976;52.942;6.810;2022-08-01T10:23:24;9.25;;;2.13;;
61093;SDS011;46976;52.942;6.810;2022-08-01T10:25:51;9.07;;;1.70;;
61093;SDS011;46976;52.942;6.810;2022-08-01T10:28:18;9.82;;;1.98;;
61093;SDS011;46976;52.942;6.810;2022-08-01T10:30:45;7.82;;;1.55;;
61093;SDS011;46976;52.942;6.810;2022-08-01T10:33:12;9.85;;;1.88;;
61093;SDS011;46976;52.942;6.810;2022-08-01T10:35:38;8.43;;;1.52;;
61093;SDS011;46976;52.942;6.810;2022-08-01T10:38:05;8.75;;;1.65;;
61093;SDS011;46976;52.942;6.810;2022-08-01T10:40:31;8.35;;;1.65;;
61093;SDS011;46976;52.942;6.810;2022-08-01T10:42:57;9.88;;;1.85;;
61093;SDS011;46976;52.942;6.810;2022-08-01T10:45:24;7.45;;;1.70;;
61093;SDS011;46976;52.942;6.810;2022-08-01T10:55:47;10.25;;;1.70;;
61093;SDS011;46976;52.942;6.810;2022-08-01T10:58:19;7.40;;;1.60;;
61093;SDS011;46976;52.942;6.810;2022-08-01T11:00:45;7.82;;;1.70;;
61093;SDS011;46976;52.942;6.810;2022-08-01T11:03:11;8.23;;;1.63;;
61093;SDS011;46976;52.942;6.810;2022-08-01T11:05:37;6.55;;;1.60;;
61093;SDS011;46976;52.942;6.810;2022-08-01T11:08:10;7.07;;;1.48;;
61093;SDS011;46976;52.942;6.810;2022-08-01T11:10:46;7.03;;;1.48;;
61093;SDS011;46976;52.942;6.810;2022-08-01T11:13:12;7.63;;;1.60;;
61093;SDS011;46976;52.942;6.810;2022-08-01T11:15:39;8.00;;;1.40;;
61093;SDS011;46976;52.942;6.810;2022-08-01T11:21:00;9.85;;;1.80;;
61093;SDS011;46976;52.942;6.810;2022-08-01T11:23:27;8.20;;;1.73;;
61093;SDS011;46976;52.942;6.810;2022-08-01T11:28:21;7.07;;;1.30;;
61093;SDS011;46976;52.942;6.810;2022-08-01T11:31:24;8.05;;;1.50;;
61093;SDS011;46976;52.942;6.810;2022-08-01T11:33:48;6.70;;;1.42;;
61093;SDS011;46976;52.942;6.810;2022-08-01T11:41:13;7.65;;;1.40;;
61093;SDS011;46976;52.942;6.810;2022-08-01T11:49:22;8.52;;;1.50;;
61093;SDS011;46976;52.942;6.810;2022-08-01T11:51:53;8.27;;;1.33;;
61093;SDS011;46976;52.942;6.810;2022-08-01T11:54:26;6.30;;;1.30;;
61093;SDS011;46976;52.942;6.810;2022-08-01T11:56:54;7.25;;;1.40;;
61093;SDS011;46976;52.942;6.810;2022-08-01T12:01:47;9.25;;;1.40;;
61093;SDS011;46976;52.942;6.810;2022-08-01T12:04:13;7.75;;;1.45;;
61093;SDS011;46976;52.942;6.810;2022-08-01T12:06:39;6.45;;;1.52;;
61093;SDS011;46976;52.942;6.810;2022-08-01T12:09:18;6.68;;;1.50;;
61093;SDS011;46976;52.942;6.810;2022-08-01T12:11:44;6.18;;;1.48;;
61093;SDS011;46976;52.942;6.810;2022-08-01T12:14:20;7.20;;;1.52;;
61093;SDS011;46976;52.942;6.810;2022-08-01T12:16:52;6.75;;;1.50;;
61093;SDS011;46976;52.942;6.810;2022-08-01T12:19:22;6.32;;;1.20;;
61093;SDS011;46976;52.942;6.810;2022-08-01T12:22:07;6.90;;;1.20;;
61093;SDS011;46976;52.942;6.810;2022-08-01T12:24:34;7.20;;;1.42;;
61093;SDS011;46976;52.942;6.810;2022-08-01T12:27:01;7.28;;;1.30;;
61093;SDS011;46976;52.942;6.810;2022-08-01T12:29:31;5.97;;;1.27;;
61093;SDS011;46976;52.942;6.810;2022-08-01T12:31:58;7.15;;;1.33;;
61093;SDS011;46976;52.942;6.810;2022-08-01T12:34:24;6.32;;;1.60;;
61093;SDS011;46976;52.942;6.810;2022-08-01T12:39:19;5.43;;;1.17;;
61093;SDS011;46976;52.942;6.810;2022-08-01T12:41:45;7.13;;;1.38;;
61093;SDS011;46976;52.942;6.810;2022-08-01T12:44:14;7.35;;;1.30;;
61093;SDS011;46976;52.942;6.810;2022-08-01T12:46:41;7.88;;;1.52;;
61093;SDS011;46976;52.942;6.810;2022-08-01T12:49:07;6.90;;;1.33;;
61093;SDS011;46976;52.942;6.810;2022-08-01T12:51:34;5.90;;;1.30;;
61093;SDS011;46976;52.942;6.810;2022-08-01T12:54:00;9.18;;;1.48;;
61093;SDS011;46976;52.942;6.810;2022-08-01T12:56:32;7.60;;;1.42;;
61093;SDS011;46976;52.942;6.810;2022-08-01T12:58:59;7.05;;;1.40;;
61093;SDS011;46976;52.942;6.810;2022-08-01T13:01:26;8.57;;;1.40;;
61093;SDS011;46976;52.942;6.810;2022-08-01T13:04:02;9.13;;;1.50;;
61093;SDS011;46976;52.942;6.810;2022-08-01T13:06:31;6.05;;;1.30;;
61093;SDS011;46976;52.942;6.810;2022-08-01T13:09:04;7.45;;;1.35;;
61093;SDS011;46976;52.942;6.810;2022-08-01T13:11:31;7.28;;;1.50;;
61093;SDS011;46976;52.942;6.810;2022-08-01T13:13:57;6.07;;;1.20;;
61093;SDS011;46976;52.942;6.810;2022-08-01T13:16:23;6.90;;;1.55;;
61093;SDS011;46976;52.942;6.810;2022-08-01T13:18:51;7.18;;;1.10;;
61093;SDS011;46976;52.942;6.810;2022-08-01T13:26:38;6.75;;;1.13;;
61093;SDS011;46976;52.942;6.810;2022-08-01T13:29:04;6.10;;;1.30;;
61093;SDS011;46976;52.942;6.810;2022-08-01T13:31:35;5.40;;;1.15;;
61093;SDS011;46976;52.942;6.810;2022-08-01T13:34:01;5.45;;;1.20;;
61093;SDS011;46976;52.942;6.810;2022-08-01T13:36:27;4.78;;;1.17;;
61093;SDS011;46976;52.942;6.810;2022-08-01T13:38:54;6.18;;;1.10;;
61093;SDS011;46976;52.942;6.810;2022-08-01T13:41:40;5.93;;;1.00;;
61093;SDS011;46976;52.942;6.810;2022-08-01T13:44:06;7.45;;;1.17;;
61093;SDS011;46976;52.942;6.810;2022-08-01T13:48:59;6.78;;;1.40;;
61093;SDS011;46976;52.942;6.810;2022-08-01T13:51:25;5.88;;;1.35;;
61093;SDS011;46976;52.942;6.810;2022-08-01T13:53:51;5.57;;;1.13;;
61093;SDS011;46976;52.942;6.810;2022-08-01T13:56:17;5.68;;;1.20;;
61093;SDS011;46976;52.942;6.810;2022-08-01T13:58:45;6.37;;;1.10;;
61093;SDS011;46976;52.942;6.810;2022-08-01T14:01:11;7.35;;;1.30;;
61093;SDS011;46976;52.942;6.810;2022-08-01T14:03:37;5.47;;;1.20;;
61093;SDS011;46976;52.942;6.810;2022-08-01T14:06:03;4.40;;;1.10;;
61093;SDS011;46976;52.942;6.810;2022-08-01T14:08:29;5.80;;;1.20;;
61093;SDS011;46976;52.942;6.810;2022-08-01T14:10:55;7.38;;;1.20;;
61093;SDS011;46976;52.942;6.810;2022-08-01T14:13:24;6.78;;;1.23;;
61093;SDS011;46976;52.942;6.810;2022-08-01T14:15:50;5.47;;;0.95;;
61093;SDS011;46976;52.942;6.810;2022-08-01T14:18:16;5.47;;;1.30;;
61093;SDS011;46976;52.942;6.810;2022-08-01T14:20:43;7.80;;;1.13;;
61093;SDS011;46976;52.942;6.810;2022-08-01T14:23:09;7.22;;;1.30;;
61093;SDS011;46976;52.942;6.810;2022-08-01T14:25:38;4.38;;;1.08;;
61093;SDS011;46976;52.942;6.810;2022-08-01T14:28:04;7.35;;;1.15;;
61093;SDS011;46976;52.942;6.810;2022-08-01T14:30:31;5.95;;;1.20;;
61093;SDS011;46976;52.942;6.810;2022-08-01T14:32:57;6.57;;;1.33;;
61093;SDS011;46976;52.942;6.810;2022-08-01T14:35:23;7.32;;;1.30;;
61093;SDS011;46976;52.942;6.810;2022-08-01T14:37:49;6.15;;;1.35;;
61093;SDS011;46976;52.942;6.810;2022-08-01T14:40:15;6.30;;;1.23;;
61093;SDS011;46976;52.942;6.810;2022-08-01T14:42:41;5.35;;;1.13;;
61093;SDS011;46976;52.942;6.810;2022-08-01T14:45:09;5.13;;;1.10;;
61093;SDS011;46976;52.942;6.810;2022-08-01T14:47:36;5.45;;;1.17;;
61093;SDS011;46976;52.942;6.810;2022-08-01T14:50:03;6.68;;;1.17;;
61093;SDS011;46976;52.942;6.810;2022-08-01T14:52:31;7.03;;;1.33;;
61093;SDS011;46976;52.942;6.810;2022-08-01T14:54:57;4.88;;;0.95;;
61093;SDS011;46976;52.942;6.810;2022-08-01T14:57:23;6.13;;;1.05;;
61093;SDS011;46976;52.942;6.810;2022-08-01T14:59:49;5.97;;;1.17;;
61093;SDS011;46976;52.942;6.810;2022-08-01T15:02:15;6.70;;;1.15;;
61093;SDS011;46976;52.942;6.810;2022-08-01T15:04:42;6.43;;;1.20;;
61093;SDS011;46976;52.942;6.810;2022-08-01T15:07:09;6.53;;;1.03;;
61093;SDS011;46976;52.942;6.810;2022-08-01T15:09:35;5.85;;;1.20;;
61093;SDS011;46976;52.942;6.810;2022-08-01T15:12:01;5.72;;;1.17;;
61093;SDS011;46976;52.942;6.810;2022-08-01T15:14:27;6.03;;;1.13;;
61093;SDS011;46976;52.942;6.810;2022-08-01T15:17:12;6.75;;;1.40;;
61093;SDS011;46976;52.942;6.810;2022-08-01T15:19:38;5.47;;;1.15;;
61093;SDS011;46976;52.942;6.810;2022-08-01T15:22:04;5.30;;;1.00;;
61093;SDS011;46976;52.942;6.810;2022-08-01T15:24:30;5.55;;;1.10;;
61093;SDS011;46976;52.942;6.810;2022-08-01T15:26:57;7.25;;;1.13;;
61093;SDS011;46976;52.942;6.810;2022-08-01T15:29:23;6.22;;;1.05;;
61093;SDS011;46976;52.942;6.810;2022-08-01T15:31:49;5.30;;;1.25;;
61093;SDS011;46976;52.942;6.810;2022-08-01T15:34:16;7.32;;;1.30;;
61093;SDS011;46976;52.942;6.810;2022-08-01T15:36:42;8.23;;;1.45;;